Gnv Atlas — IBUH — position and weather

sailwx.info

Track history (hours):
 
Tides and Currents Weather Stations Pressure Air Temp Water Temp Dewpoint Dewpoint Depression Visibility Wind Speed Wind Dir Waves Ship Positions

Gnv Atlas

Last reported at 2017-Mar-30 23:32 UTC. Time now 2017-Mar-31 00:28 UTC.
Position N 37°28' W 000°43'.

Length 162 m; draft 6.1 m.

Type: Passenger vessel. MMSI: 247163100.

Date/timePositionNaut miles runAvg speedWind from/ knotsBaromVisibWave heightAir tempDewpointWater temp
2017-Mar-30 23:32N 37°28' W 000°43'1818.6
2017-Mar-30 22:33N 37°41' W 000°28'14018.7
2017-Mar-30 15:05N 39°42' E 001°04'1119.4
2017-Mar-30 14:33N 39°51' E 001°10'1919.2
2017-Mar-30 13:33N 40°08' E 001°22'1919.3
2017-Mar-30 12:33N 40°25' E 001°34'1919.5
2017-Mar-30 11:34N 40°42' E 001°45'2019.4
2017-Mar-30 10:33N 40°59' E 001°57'2019.6
2017-Mar-30 09:33N 41°16' E 002°11'3 0.5
2017-Mar-30 02:33N 41°20' E 002°10'1110.9
2017-Mar-30 01:33N 41°22' E 002°24'1616.6
2017-Mar-30 00:33N 41°32' E 002°42'10216.1
2017-Mar-29 18:13N 43°04' E 003°40'20 9.7
2017-Mar-29 16:10N 43°24' E 003°42'5 0.6
2017-Mar-29 07:24N 43°19' E 003°46'10517.1
2017-Mar-29 01:16N 41°39' E 003°06'1317.5
2017-Mar-29 00:33N 41°28' E 002°56'1717.4
2017-Mar-28 23:33N 41°14' E 002°43'1817.7
2017-Mar-28 22:33N 40°59' E 002°30'1817.7
2017-Mar-28 21:33N 40°44' E 002°18'1817.5
2017-Mar-28 20:33N 40°30' E 002°04'1717.3
2017-Mar-28 19:33N 40°16' E 001°51'1817.8
2017-Mar-28 18:33N 40°01' E 001°38'1817.7
2017-Mar-28 17:33N 39°46' E 001°25'4217.4
2017-Mar-28 15:09N 39°12' E 000°54'11417.2
2017-Mar-28 08:31N 37°37' W 000°27'1917.4
2017-Mar-28 07:24N 37°24' W 000°44'22316.8
2017-Mar-27 18:11N 36°01' W 005°02'1321.4
2017-Mar-27 17:33N 35°59' W 005°18'10 1.3
2017-Mar-27 09:33N 35°58' W 005°30'24110.9
2017-Mar-26 11:27N 37°21' W 000°49'1617.7
2017-Mar-26 10:33N 37°33' W 000°36'3617.3
2017-Mar-26 08:29N 38°03' W 000°11'11916.7
2017-Mar-26 01:20N 39°41' E 001°15'1518.5
2017-Mar-26 00:33N 39°53' E 001°26'1818.3
2017-Mar-25 23:33N 40°08' E 001°39'1918.6
2017-Mar-25 22:34N 40°23' E 001°54'1918.7
2017-Mar-25 21:33N 40°38' E 002°09'1919.1
2017-Mar-25 20:33N 40°54' E 002°23'14 0.3
2017-Mar-24 02:33N 41°05' E 002°35'1919.2
2017-Mar-24 01:33N 40°49' E 002°21'2019.4
2017-Mar-24 00:33N 40°33' E 002°06'1919.4
2017-Mar-23 23:33N 40°17' E 001°52'2020.1
2017-Mar-23 22:33N 40°00' E 001°37'2019.9
2017-Mar-23 21:33N 39°44' E 001°23'14520.1
2017-Mar-23 14:21N 37°43' W 000°21'2620.3
2017-Mar-23 13:05N 37°24' W 000°43'1119.9
2017-Mar-23 12:31N 37°17' W 000°53'21118.9
2017-Mar-23 01:22N 36°02' W 004°59'1619.4
2017-Mar-23 00:33N 35°59' W 005°19'1211.0
2017-Mar-22 23:29N 35°53' W 005°31'0 0.0
2017-Mar-22 22:26N 35°53' W 005°31'0 0.0
2017-Mar-22 21:29N 35°53' W 005°31'0 0.0
2017-Mar-22 20:26N 35°53' W 005°31'0 0.0
2017-Mar-22 19:32N 35°53' W 005°31'0 0.0
2017-Mar-22 18:29N 35°53' W 005°31'2 2.4
2017-Mar-22 17:33N 35°55' W 005°32'5 4.5
2017-Mar-22 16:33N 35°59' W 005°29'1212.5
2017-Mar-22 15:33N 36°02' W 005°14'1 1.5
2017-Mar-22 14:33N 36°01' W 005°13'9 8.3
2017-Mar-22 13:31N 36°03' W 005°02'20516.5
2017-Mar-22 01:06N 37°14' W 001°03'1018.1
2017-Mar-22 00:34N 37°21' W 000°53'1817.8
2017-Mar-21 23:34N 37°32' W 000°36'6118.0
2017-Mar-21 20:10N 38°23' E 000°06'9118.4
2017-Mar-21 15:14N 39°42' E 001°03'1318.8
2017-Mar-21 14:33N 39°53' E 001°11'1918.8
2017-Mar-21 13:33N 40°10' E 001°23'1818.5
2017-Mar-21 12:33N 40°26' E 001°35'1818.1
2017-Mar-21 11:33N 40°42' E 001°46'1818.2
2017-Mar-21 10:33N 40°58' E 001°56'1818.2
2017-Mar-21 09:33N 41°14' E 002°08'8 1.4
2017-Mar-21 04:06N 41°22' E 002°11'2110.9
2017-Mar-21 02:11N 41°28' E 002°37'1217.7
2017-Mar-21 01:32N 41°35' E 002°49'  
Track history (hours):
 
Tides and Currents Weather Stations Pressure Air Temp Water Temp Dewpoint Dewpoint Depression Visibility Wind Speed Wind Dir Waves Ship Positions

Gnv Atlas

Last reported at 2017-Mar-30 23:32 UTC. Time now 2017-Mar-31 00:28 UTC.
Position N 37°28' W 000°43'.

Length 162 m; draft 6.1 m.

Type: Passenger vessel. MMSI: 247163100.

Date/timePositionNaut miles runAvg speedWind from/ knotsBaromVisibWave heightAir tempDewpointWater temp
2017-Mar-30 23:32N 37°28' W 000°43'1818.6
2017-Mar-30 22:33N 37°41' W 000°28'14018.7
2017-Mar-30 15:05N 39°42' E 001°04'1119.4
2017-Mar-30 14:33N 39°51' E 001°10'1919.2
2017-Mar-30 13:33N 40°08' E 001°22'1919.3
2017-Mar-30 12:33N 40°25' E 001°34'1919.5
2017-Mar-30 11:34N 40°42' E 001°45'2019.4
2017-Mar-30 10:33N 40°59' E 001°57'2019.6
2017-Mar-30 09:33N 41°16' E 002°11'3 0.5
2017-Mar-30 02:33N 41°20' E 002°10'1110.9
2017-Mar-30 01:33N 41°22' E 002°24'1616.6
2017-Mar-30 00:33N 41°32' E 002°42'10216.1
2017-Mar-29 18:13N 43°04' E 003°40'20 9.7
2017-Mar-29 16:10N 43°24' E 003°42'5 0.6
2017-Mar-29 07:24N 43°19' E 003°46'10517.1
2017-Mar-29 01:16N 41°39' E 003°06'1317.5
2017-Mar-29 00:33N 41°28' E 002°56'1717.4
2017-Mar-28 23:33N 41°14' E 002°43'1817.7
2017-Mar-28 22:33N 40°59' E 002°30'1817.7
2017-Mar-28 21:33N 40°44' E 002°18'1817.5
2017-Mar-28 20:33N 40°30' E 002°04'1717.3
2017-Mar-28 19:33N 40°16' E 001°51'1817.8
2017-Mar-28 18:33N 40°01' E 001°38'1817.7
2017-Mar-28 17:33N 39°46' E 001°25'4217.4
2017-Mar-28 15:09N 39°12' E 000°54'11417.2
2017-Mar-28 08:31N 37°37' W 000°27'1917.4
2017-Mar-28 07:24N 37°24' W 000°44'22316.8
2017-Mar-27 18:11N 36°01' W 005°02'1321.4
2017-Mar-27 17:33N 35°59' W 005°18'10 1.3
2017-Mar-27 09:33N 35°58' W 005°30'24110.9
2017-Mar-26 11:27N 37°21' W 000°49'1617.7
2017-Mar-26 10:33N 37°33' W 000°36'3617.3
2017-Mar-26 08:29N 38°03' W 000°11'11916.7
2017-Mar-26 01:20N 39°41' E 001°15'1518.5
2017-Mar-26 00:33N 39°53' E 001°26'1818.3
2017-Mar-25 23:33N 40°08' E 001°39'1918.6
2017-Mar-25 22:34N 40°23' E 001°54'1918.7
2017-Mar-25 21:33N 40°38' E 002°09'1919.1
2017-Mar-25 20:33N 40°54' E 002°23'14 0.3
2017-Mar-24 02:33N 41°05' E 002°35'1919.2
2017-Mar-24 01:33N 40°49' E 002°21'2019.4
2017-Mar-24 00:33N 40°33' E 002°06'1919.4
2017-Mar-23 23:33N 40°17' E 001°52'2020.1
2017-Mar-23 22:33N 40°00' E 001°37'2019.9
2017-Mar-23 21:33N 39°44' E 001°23'14520.1
2017-Mar-23 14:21N 37°43' W 000°21'2620.3
2017-Mar-23 13:05N 37°24' W 000°43'1119.9
2017-Mar-23 12:31N 37°17' W 000°53'21118.9
2017-Mar-23 01:22N 36°02' W 004°59'1619.4
2017-Mar-23 00:33N 35°59' W 005°19'1211.0
2017-Mar-22 23:29N 35°53' W 005°31'0 0.0
2017-Mar-22 22:26N 35°53' W 005°31'0 0.0
2017-Mar-22 21:29N 35°53' W 005°31'0 0.0
2017-Mar-22 20:26N 35°53' W 005°31'0 0.0
2017-Mar-22 19:32N 35°53' W 005°31'0 0.0
2017-Mar-22 18:29N 35°53' W 005°31'2 2.4
2017-Mar-22 17:33N 35°55' W 005°32'5 4.5
2017-Mar-22 16:33N 35°59' W 005°29'1212.5
2017-Mar-22 15:33N 36°02' W 005°14'1 1.5
2017-Mar-22 14:33N 36°01' W 005°13'9 8.3
2017-Mar-22 13:31N 36°03' W 005°02'20516.5
2017-Mar-22 01:06N 37°14' W 001°03'1018.1
2017-Mar-22 00:34N 37°21' W 000°53'1817.8
2017-Mar-21 23:34N 37°32' W 000°36'6118.0
2017-Mar-21 20:10N 38°23' E 000°06'9118.4
2017-Mar-21 15:14N 39°42' E 001°03'1318.8
2017-Mar-21 14:33N 39°53' E 001°11'1918.8
2017-Mar-21 13:33N 40°10' E 001°23'1818.5
2017-Mar-21 12:33N 40°26' E 001°35'1818.1
2017-Mar-21 11:33N 40°42' E 001°46'1818.2
2017-Mar-21 10:33N 40°58' E 001°56'1818.2
2017-Mar-21 09:33N 41°14' E 002°08'8 1.4
2017-Mar-21 04:06N 41°22' E 002°11'2110.9
2017-Mar-21 02:11N 41°28' E 002°37'1217.7
2017-Mar-21 01:32N 41°35' E 002°49'  

Dump ship's entire track history